Time;durP1;ratioP1;P1;durP2;ratioP2;P2;SDS_P1;SDS_P2;PMS_P1;PMS_P2;Temp;Humidity;BMP_temperature;BMP_pressure;BME280_temperature;BME280_humidity;BME280_pressure;Samples;Min_cycle;Max_cycle;Signal;HPM_P1;HPM_P2
2023/10/18 00:01:29;;;;;;;7.22;4.20;;;5.90;99.90;;;;;;5074193;28;20119;-63
2023/10/18 00:03:57;;;;;;;8.30;4.68;;;5.80;99.90;;;;;;5072819;28;20406;-63
2023/10/18 00:06:23;;;;;;;7.13;4.28;;;5.80;99.90;;;;;;5074308;28;20107;-63
2023/10/18 00:08:57;;;;;;;8.75;4.70;;;5.80;99.90;;;;;;5069681;28;20120;-63
2023/10/18 00:11:24;;;;;;;10.50;4.95;;;5.90;99.90;;;;;;5052304;28;20049;-63
2023/10/18 00:13:51;;;;;;;11.63;4.82;;;5.80;99.90;;;;;;5052665;28;20371;-63
2023/10/18 00:16:17;;;;;;;9.07;4.93;;;5.90;99.90;;;;;;5053201;28;20094;-63
2023/10/18 00:18:43;;;;;;;9.25;4.82;;;5.80;99.90;;;;;;5052855;28;20490;-63
2023/10/18 00:21:09;;;;;;;9.63;5.25;;;5.90;99.90;;;;;;5071884;28;20048;-63
2023/10/18 00:23:34;;;;;;;9.02;4.60;;;5.80;99.90;;;;;;5072402;28;20102;-63
2023/10/18 00:26:18;;;;;;;10.45;5.65;;;5.80;99.90;;;;;;5072144;28;20044;-63
2023/10/18 00:28:44;;;;;;;7.78;4.43;;;5.80;99.90;;;;;;5071373;28;20153;-63
2023/10/18 00:31:18;;;;;;;7.78;4.47;;;5.80;99.90;;;;;;5048720;28;20041;-63
2023/10/18 00:33:47;;;;;;;11.52;5.30;;;5.80;99.90;;;;;;5032549;28;20042;-63
2023/10/18 00:36:16;;;;;;;10.43;5.35;;;5.80;99.90;;;;;;5034924;28;20091;-63
2023/10/18 00:38:46;;;;;;;8.57;5.18;;;5.70;99.90;;;;;;5069765;28;20090;-63
2023/10/18 00:43:56;;;;;;;9.93;5.20;;;5.70;99.90;;;;;;5086005;28;20060;-63
2023/10/18 00:46:22;;;;;;;8.40;5.47;;;5.70;99.90;;;;;;5052754;28;20036;-63
2023/10/18 00:48:48;;;;;;;8.02;4.97;;;5.70;99.90;;;;;;5052639;28;20500;-63
2023/10/18 00:51:18;;;;;;;11.43;5.93;;;5.70;99.90;;;;;;5067805;28;20048;-63
2023/10/18 00:53:47;;;;;;;9.55;5.35;;;5.70;99.90;;;;;;5051182;28;20461;-63
2023/10/18 00:56:15;;;;;;;9.95;6.32;;;5.60;99.90;;;;;;5052245;28;20052;-63
2023/10/18 00:58:42;;;;;;;12.63;5.65;;;5.60;99.90;;;;;;5058961;28;20040;-64
2023/10/18 01:01:11;;;;;;;8.60;5.65;;;5.60;99.90;;;;;;5044608;28;20115;-63
2023/10/18 01:03:49;;;;;;;11.63;5.97;;;5.60;99.90;;;;;;5051746;28;20037;-63
2023/10/18 01:06:20;;;;;;;11.32;6.05;;;5.60;99.90;;;;;;5069761;28;20099;-63
2023/10/18 01:08:49;;;;;;;10.93;6.25;;;5.50;99.90;;;;;;5071972;28;20053;-63
2023/10/18 01:11:22;;;;;;;10.23;6.03;;;5.50;99.90;;;;;;5071859;28;20107;-63
2023/10/18 01:13:48;;;;;;;9.15;5.50;;;5.50;99.90;;;;;;5069449;28;20053;-63
2023/10/18 01:16:20;;;;;;;12.32;5.95;;;5.50;99.90;;;;;;5052432;28;20078;-63
2023/10/18 01:18:47;;;;;;;10.52;5.95;;;5.40;99.90;;;;;;5054436;28;20464;-63
2023/10/18 01:21:19;;;;;;;11.23;7.03;;;5.40;99.90;;;;;;5051149;28;20394;-63
2023/10/18 01:23:53;;;;;;;12.32;6.65;;;5.40;99.90;;;;;;5063423;28;20486;-63
2023/10/18 01:26:23;;;;;;;10.73;5.85;;;5.40;99.90;;;;;;5051805;28;20055;-63
2023/10/18 01:28:51;;;;;;;9.25;5.78;;;5.30;99.90;;;;;;5050538;28;20048;-63
2023/10/18 01:31:18;;;;;;;9.95;6.22;;;5.30;99.90;;;;;;5051507;28;20037;-63
2023/10/18 01:33:45;;;;;;;10.88;6.43;;;5.30;99.90;;;;;;5051186;28;20174;-63
2023/10/18 01:36:15;;;;;;;11.73;6.32;;;5.30;99.90;;;;;;5050798;28;20051;-63
2023/10/18 01:38:42;;;;;;;11.77;6.90;;;5.30;99.90;;;;;;5052298;28;20044;-63
2023/10/18 01:41:12;;;;;;;12.45;6.95;;;5.30;99.90;;;;;;5051824;28;20045;-63
2023/10/18 01:43:38;;;;;;;10.40;6.22;;;5.30;99.90;;;;;;5050965;28;20106;-63
2023/10/18 01:46:08;;;;;;;13.18;7.35;;;5.30;99.90;;;;;;5070040;28;20124;-63
2023/10/18 01:48:37;;;;;;;13.43;8.65;;;5.30;99.90;;;;;;5070659;28;20391;-63
2023/10/18 01:51:05;;;;;;;14.20;7.78;;;5.30;99.90;;;;;;5054385;28;20488;-63
2023/10/18 01:53:37;;;;;;;14.32;8.18;;;5.30;99.90;;;;;;5069093;28;20080;-63
2023/10/18 01:56:02;;;;;;;12.60;8.60;;;5.30;99.90;;;;;;5064062;28;20438;-63
2023/10/18 01:58:30;;;;;;;13.10;8.82;;;5.30;99.90;;;;;;5070845;28;20132;-63
2023/10/18 02:00:56;;;;;;;12.05;8.60;;;5.30;99.90;;;;;;5072625;28;20047;-63
2023/10/18 02:03:23;;;;;;;14.93;10.18;;;5.30;99.90;;;;;;5053476;28;20086;-63
2023/10/18 02:05:49;;;;;;;15.85;10.23;;;5.40;99.90;;;;;;5069054;28;20044;-63
2023/10/18 02:08:15;;;;;;;14.30;9.13;;;5.40;99.90;;;;;;5057571;28;20041;-63
2023/10/18 02:10:42;;;;;;;14.68;10.02;;;5.40;99.90;;;;;;5050527;28;20049;-63
2023/10/18 02:13:14;;;;;;;17.73;10.40;;;5.40;99.90;;;;;;5050672;28;20051;-63
2023/10/18 02:15:40;;;;;;;16.27;10.32;;;5.40;99.90;;;;;;5052253;28;20037;-63
2023/10/18 02:18:09;;;;;;;20.38;10.77;;;5.40;99.90;;;;;;5050529;28;20102;-63
2023/10/18 02:20:42;;;;;;;15.93;9.80;;;5.40;99.90;;;;;;5050421;28;20037;-63
2023/10/18 02:23:13;;;;;;;17.55;10.52;;;5.50;99.90;;;;;;5050786;28;20060;-63
2023/10/18 02:28:22;;;;;;;16.98;10.95;;;5.50;99.90;;;;;;5070611;28;20489;-64
2023/10/18 02:31:09;;;;;;;16.77;10.25;;;5.40;99.90;;;;;;5053031;28;20489;-63
2023/10/18 02:34:18;;;;;;;15.18;9.75;;;5.30;99.90;;;;;;5070645;28;20043;-63
2023/10/18 02:36:38;;;;;;;23.00;11.23;;;5.30;99.90;;;;;;5059547;28;20462;-64
2023/10/18 02:39:05;;;;;;;15.18;10.25;;;5.30;99.90;;;;;;5071360;28;20052;-63
2023/10/18 02:41:31;;;;;;;16.42;10.70;;;5.30;99.90;;;;;;5070122;28;20036;-63
2023/10/18 02:44:00;;;;;;;14.18;10.10;;;5.30;99.90;;;;;;5070967;28;20401;-63
2023/10/18 02:46:29;;;;;;;15.32;9.68;;;5.30;99.90;;;;;;5064635;28;20051;-63
2023/10/18 02:48:56;;;;;;;13.95;10.82;;;5.20;99.90;;;;;;5070517;28;20044;-63
2023/10/18 02:51:24;;;;;;;24.52;12.93;;;5.20;99.90;;;;;;5069921;28;20063;-63
2023/10/18 02:53:51;;;;;;;16.50;10.90;;;5.20;99.90;;;;;;5046408;28;20119;-63
2023/10/18 02:56:20;;;;;;;17.48;10.70;;;5.20;99.90;;;;;;5050721;28;20040;-63
2023/10/18 02:58:49;;;;;;;16.13;10.77;;;5.20;99.90;;;;;;5050855;28;20040;-63
2023/10/18 03:01:19;;;;;;;16.52;10.20;;;5.20;99.90;;;;;;5050322;28;20429;-63
2023/10/18 03:03:52;;;;;;;16.23;10.63;;;5.20;99.90;;;;;;5052846;28;20045;-63
2023/10/18 03:06:20;;;;;;;15.15;10.20;;;5.10;99.90;;;;;;5053860;28;20053;-63
2023/10/18 03:08:49;;;;;;;17.63;10.38;;;5.20;99.90;;;;;;5054040;28;20494;-63
2023/10/18 03:11:17;;;;;;;16.58;11.45;;;5.10;99.90;;;;;;5055332;28;20116;-63
2023/10/18 03:13:42;;;;;;;18.55;10.60;;;5.20;99.90;;;;;;5054519;28;20051;-63
2023/10/18 03:18:44;;;;;;;17.42;10.52;;;5.20;99.90;;;;;;5074033;28;20076;-63
2023/10/18 03:21:20;;;;;;;16.80;10.95;;;5.10;99.90;;;;;;5072971;28;20066;-63
2023/10/18 03:23:51;;;;;;;18.85;11.55;;;5.20;99.90;;;;;;5052008;28;20044;-63
2023/10/18 03:26:33;;;;;;;19.27;11.18;;;5.10;99.90;;;;;;5055236;28;20486;-63
2023/10/18 03:29:05;;;;;;;16.80;11.32;;;5.10;99.90;;;;;;5054671;28;20057;-63
2023/10/18 03:31:35;;;;;;;17.38;11.25;;;5.10;99.90;;;;;;5053513;28;20052;-63
2023/10/18 03:34:02;;;;;;;15.93;11.73;;;5.10;99.90;;;;;;5053025;28;20555;-63
2023/10/18 03:36:32;;;;;;;19.02;11.80;;;5.10;99.90;;;;;;5054727;28;20033;-63
2023/10/18 03:39:10;;;;;;;18.58;12.05;;;5.00;99.90;;;;;;5053995;28;20045;-63
2023/10/18 03:41:40;;;;;;;19.10;11.20;;;5.00;99.90;;;;;;5036075;28;20037;-63
2023/10/18 03:44:07;;;;;;;24.20;12.68;;;5.00;99.90;;;;;;5054114;28;20045;-63
2023/10/18 03:46:47;;;;;;;20.52;12.70;;;5.10;99.90;;;;;;5064768;28;20040;-63
2023/10/18 03:52:06;;;;;;;21.05;12.27;;;5.00;99.90;;;;;;5087164;28;20049;-63
2023/10/18 03:54:44;;;;;;;17.83;11.82;;;5.00;99.90;;;;;;5053029;28;20059;-63
2023/10/18 03:57:15;;;;;;;21.88;13.65;;;4.90;99.90;;;;;;5067380;28;20040;-63
2023/10/18 03:59:45;;;;;;;18.98;11.48;;;4.90;99.90;;;;;;5073235;28;20047;-63
2023/10/18 04:04:50;;;;;;;18.45;12.00;;;4.80;99.90;;;;;;5059221;28;20045;-63
2023/10/18 04:07:16;;;;;;;22.27;12.35;;;4.80;99.90;;;;;;5037338;28;20110;-63
2023/10/18 04:12:27;;;;;;;24.45;14.02;;;4.80;99.90;;;;;;5072827;28;20048;-63
2023/10/18 04:14:56;;;;;;;20.45;13.48;;;4.70;99.90;;;;;;5071872;28;20085;-63
2023/10/18 04:17:36;;;;;;;22.02;13.48;;;4.80;99.90;;;;;;5070512;28;20072;-63
2023/10/18 04:20:22;;;;;;;18.40;11.75;;;4.80;99.90;;;;;;5073235;28;20058;-63
2023/10/18 04:22:51;;;;;;;20.38;12.98;;;4.80;99.90;;;;;;5072350;28;20101;-63
2023/10/18 04:25:27;;;;;;;24.60;13.98;;;4.70;99.90;;;;;;5038672;28;20049;-63
2023/10/18 04:27:53;;;;;;;20.20;13.00;;;4.70;99.90;;;;;;5052670;28;20072;-63
2023/10/18 04:30:22;;;;;;;21.38;13.73;;;4.70;99.90;;;;;;5051882;28;20055;-63
2023/10/18 04:32:59;;;;;;;21.00;13.40;;;4.70;99.90;;;;;;5052527;28;20060;-63
2023/10/18 04:35:45;;;;;;;24.10;13.65;;;4.70;99.90;;;;;;5054630;28;20037;-63
2023/10/18 04:38:29;;;;;;;18.77;13.35;;;4.70;99.90;;;;;;5052097;28;20053;-63
2023/10/18 04:41:03;;;;;;;23.92;14.38;;;4.70;99.90;;;;;;5069466;28;20040;-63
2023/10/18 04:43:32;;;;;;;22.40;14.88;;;4.70;99.90;;;;;;5053298;28;20045;-63
2023/10/18 04:46:02;;;;;;;23.60;14.13;;;4.80;99.90;;;;;;5060342;28;20044;-63
2023/10/18 04:51:26;;;;;;;40.22;26.48;;;4.80;99.90;;;;;;5071582;28;20057;-63
2023/10/18 04:53:57;;;;;;;30.25;21.48;;;4.80;99.90;;;;;;5067078;28;20049;-63
2023/10/18 04:56:34;;;;;;;30.33;20.52;;;4.80;99.90;;;;;;5065096;28;20072;-63
2023/10/18 04:59:06;;;;;;;27.55;20.42;;;4.80;99.90;;;;;;5057602;28;20049;-63
2023/10/18 05:01:36;;;;;;;27.55;19.83;;;4.80;99.90;;;;;;5052192;28;20045;-63
2023/10/18 05:04:24;;;;;;;23.00;14.25;;;4.90;99.90;;;;;;5052130;28;20051;-63
2023/10/18 05:06:54;;;;;;;21.98;16.58;;;4.90;99.90;;;;;;5051644;28;20055;-63
2023/10/18 05:09:32;;;;;;;24.58;15.60;;;4.90;99.90;;;;;;5068393;28;20052;-63
2023/10/18 05:14:53;;;;;;;20.90;13.40;;;4.90;99.90;;;;;;5083395;28;20528;-64
2023/10/18 05:20:24;;;;;;;23.40;18.50;;;4.90;99.90;;;;;;5083822;28;20048;-63
2023/10/18 05:22:52;;;;;;;24.83;17.70;;;4.90;99.90;;;;;;5051713;28;20044;-63
2023/10/18 05:28:09;;;;;;;21.77;16.08;;;4.80;99.90;;;;;;5072040;28;20048;-63
2023/10/18 05:43:46;;;;;;;23.25;15.18;;;4.90;99.90;;;;;;5065009;28;20052;-63
2023/10/18 05:46:11;;;;;;;27.83;15.65;;;4.90;99.90;;;;;;5105212;28;20123;-63
2023/10/18 05:48:41;;;;;;;26.35;17.40;;;4.90;99.90;;;;;;5104119;28;20055;-63
2023/10/18 05:53:51;;;;;;;26.63;20.92;;;4.90;99.90;;;;;;5084275;28;20110;-63
2023/10/18 05:56:21;;;;;;;34.67;25.73;;;4.90;99.90;;;;;;5050495;28;20044;-63
2023/10/18 05:58:56;;;;;;;27.27;19.80;;;4.90;99.90;;;;;;5067367;28;20402;-63
2023/10/18 06:01:21;;;;;;;;;;;4.90;99.90;;;;;;5053432;28;20032;-63
2023/10/18 06:03:47;;;;;;;26.88;17.90;;;4.90;99.90;;;;;;5050712;28;19920;-63
2023/10/18 06:06:12;;;;;;;26.80;19.75;;;4.90;99.90;;;;;;5050695;28;20452;-63
2023/10/18 06:08:38;;;;;;;24.20;18.02;;;5.00;99.90;;;;;;5050200;28;20091;-63
2023/10/18 06:11:06;;;;;;;24.15;17.30;;;5.00;99.90;;;;;;5051039;28;20048;-63
2023/10/18 06:13:40;;;;;;;23.20;17.35;;;5.00;99.90;;;;;;5051636;28;20041;-63
2023/10/18 06:16:19;;;;;;;31.98;23.48;;;5.00;99.90;;;;;;5050652;28;20037;-64
2023/10/18 06:18:49;;;;;;;41.88;29.63;;;5.00;99.90;;;;;;5040637;28;20462;-64
2023/10/18 06:21:21;;;;;;;44.38;28.13;;;5.00;99.90;;;;;;5070946;28;20036;-64
2023/10/18 06:23:56;;;;;;;29.98;22.25;;;5.00;99.90;;;;;;5071165;28;20044;-63
2023/10/18 06:26:28;;;;;;;48.00;33.40;;;5.10;99.90;;;;;;5055665;28;20037;-64
2023/10/18 06:29:11;;;;;;;38.42;25.95;;;5.10;99.90;;;;;;5058235;28;20072;-63
2023/10/18 06:31:46;;;;;;;31.63;20.52;;;5.10;99.90;;;;;;5070159;28;20045;-64
2023/10/18 06:34:18;;;;;;;31.42;24.98;;;5.10;99.90;;;;;;5047035;28;20037;-63
2023/10/18 06:36:52;;;;;;;34.13;22.88;;;5.10;99.90;;;;;;5059314;28;20033;-63
2023/10/18 06:39:25;;;;;;;37.50;25.48;;;5.20;99.90;;;;;;5034767;28;20053;-63
2023/10/18 06:42:06;;;;;;;36.63;23.10;;;5.10;99.90;;;;;;5051013;28;20095;-63
2023/10/18 06:44:33;;;;;;;28.00;18.92;;;5.20;99.90;;;;;;5066832;28;20048;-63
2023/10/18 06:47:01;;;;;;;24.88;19.00;;;5.20;99.90;;;;;;5084846;28;20045;-63
2023/10/18 06:49:27;;;;;;;27.67;20.33;;;5.20;99.90;;;;;;5081952;28;20501;-63
2023/10/18 06:51:53;;;;;;;27.30;19.92;;;5.10;99.90;;;;;;5033710;28;20060;-63
2023/10/18 06:54:30;;;;;;;26.27;18.23;;;5.20;99.90;;;;;;5051132;28;20056;-63
2023/10/18 06:57:15;;;;;;;28.77;19.67;;;5.20;99.90;;;;;;5054967;28;20068;-63
2023/10/18 06:59:45;;;;;;;29.80;20.60;;;5.30;99.90;;;;;;5060547;28;20817;-63
2023/10/18 07:02:12;;;;;;;27.83;17.63;;;5.30;99.90;;;;;;5056824;28;20098;-63
2023/10/18 07:04:38;;;;;;;27.15;18.88;;;5.30;99.90;;;;;;5038028;28;20060;-63
2023/10/18 07:07:11;;;;;;;28.10;18.38;;;5.30;99.90;;;;;;5035755;28;20044;-63
2023/10/18 07:09:38;;;;;;;26.40;18.17;;;5.40;99.90;;;;;;5053890;28;20127;-63
2023/10/18 07:12:04;;;;;;;31.08;20.85;;;5.40;99.90;;;;;;5053544;28;20037;-63
2023/10/18 07:14:31;;;;;;;26.85;16.10;;;5.50;99.90;;;;;;5051142;28;20126;-64
2023/10/18 07:17:00;;;;;;;25.88;16.58;;;5.50;99.90;;;;;;5075407;28;20052;-63
2023/10/18 07:19:27;;;;;;;22.58;15.90;;;5.50;99.90;;;;;;5047768;28;20075;-63
2023/10/18 07:21:59;;;;;;;27.38;17.42;;;5.60;99.90;;;;;;5061171;28;20098;-64
2023/10/18 07:24:32;;;;;;;24.20;16.63;;;5.60;99.90;;;;;;5052531;28;20052;-63
2023/10/18 07:26:59;;;;;;;23.30;16.17;;;5.60;99.90;;;;;;5063507;28;20550;-63
2023/10/18 07:29:27;;;;;;;20.08;14.80;;;5.70;99.90;;;;;;5051455;28;20182;-63
2023/10/18 07:31:53;;;;;;;25.70;16.08;;;5.70;99.90;;;;;;5051598;28;20053;-63
2023/10/18 07:34:28;;;;;;;25.45;17.05;;;5.70;99.90;;;;;;5034778;28;20057;-63
2023/10/18 07:36:54;;;;;;;23.58;14.15;;;5.80;99.90;;;;;;5062901;28;20076;-63
2023/10/18 07:39:24;;;;;;;22.98;14.32;;;5.80;99.90;;;;;;5056725;28;20442;-63
2023/10/18 07:41:51;;;;;;;19.50;13.32;;;5.90;99.90;;;;;;5050079;28;20049;-63
2023/10/18 07:44:17;;;;;;;21.88;13.15;;;5.90;99.90;;;;;;5079680;28;20050;-63
2023/10/18 07:46:42;;;;;;;21.67;13.80;;;6.00;99.90;;;;;;5046773;28;20084;-64
2023/10/18 07:49:13;;;;;;;20.17;13.05;;;6.00;99.90;;;;;;5032948;28;20390;-64
2023/10/18 07:51:48;;;;;;;22.48;13.43;;;6.10;99.90;;;;;;5050403;28;20096;-63
2023/10/18 07:54:20;;;;;;;33.03;18.58;;;6.20;99.90;;;;;;5028260;28;20053;-64
2023/10/18 07:56:49;;;;;;;28.65;17.20;;;6.20;99.90;;;;;;5070235;28;20045;-64
2023/10/18 07:59:28;;;;;;;25.55;16.55;;;6.30;99.90;;;;;;5050407;28;20049;-64
2023/10/18 08:02:12;;;;;;;26.30;14.45;;;6.40;99.90;;;;;;5054308;28;20319;-64
2023/10/18 08:04:40;;;;;;;19.60;12.63;;;6.40;99.90;;;;;;5050728;28;20086;-64
2023/10/18 08:07:10;;;;;;;22.63;12.70;;;6.50;99.90;;;;;;5054509;28;20037;-64
2023/10/18 08:09:39;;;;;;;20.73;13.15;;;6.60;99.90;;;;;;5053135;28;20052;-64
2023/10/18 08:12:06;;;;;;;24.38;15.95;;;6.60;99.90;;;;;;5070124;28;20063;-64
2023/10/18 08:14:35;;;;;;;24.30;15.57;;;6.70;99.90;;;;;;5046947;28;20127;-64
2023/10/18 08:17:29;;;;;;;23.98;13.45;;;6.80;99.90;;;;;;5055445;28;20083;-64
2023/10/18 08:20:17;;;;;;;21.52;13.90;;;6.80;99.90;;;;;;5051784;28;20098;-63
2023/10/18 08:22:43;;;;;;;26.10;16.10;;;6.90;99.90;;;;;;5063977;28;20037;-63
2023/10/18 08:25:21;;;;;;;26.30;15.50;;;6.90;99.90;;;;;;5058323;28;20060;-63
2023/10/18 08:27:51;;;;;;;25.08;13.85;;;7.00;99.90;;;;;;5064843;28;20040;-62
2023/10/18 08:30:24;;;;;;;18.67;12.52;;;7.00;99.90;;;;;;5051838;28;20036;-61
2023/10/18 08:32:53;;;;;;;19.70;12.63;;;7.10;99.90;;;;;;5065858;28;20066;-65
2023/10/18 08:35:21;;;;;;;25.90;15.23;;;7.20;99.90;;;;;;5036985;28;20135;-64
2023/10/18 08:37:47;;;;;;;26.05;13.80;;;7.20;99.90;;;;;;5081644;28;20048;-64
2023/10/18 08:43:12;;;;;;;19.95;12.05;;;7.30;99.90;;;;;;5058253;28;20132;-62
2023/10/18 08:45:45;;;;;;;27.05;16.38;;;7.30;99.90;;;;;;5043916;28;20049;-61
2023/10/18 08:48:15;;;;;;;40.55;23.45;;;7.40;99.90;;;;;;5068763;28;20044;-61
2023/10/18 08:50:42;;;;;;;31.77;18.60;;;7.40;99.90;;;;;;5046080;28;20482;-62
2023/10/18 08:53:25;;;;;;;;;;;;;;;;;;;;;
2023/10/18 08:55:52;;;;;;;18.65;11.07;;;7.50;99.90;;;;;;5041418;28;20057;-62
2023/10/18 08:58:20;;;;;;;23.90;13.65;;;7.60;99.90;;;;;;5065899;28;20128;-62
2023/10/18 09:03:23;;;;;;;;;;;7.70;99.90;;;;;;5058743;28;20441;-65
2023/10/18 09:06:03;;;;;;;33.72;17.35;;;7.70;99.90;;;;;;5052040;28;19928;-69
2023/10/18 09:08:29;;;;;;;24.33;14.32;;;7.80;99.90;;;;;;5051533;28;20049;-69
2023/10/18 09:10:55;;;;;;;25.13;18.33;;;7.90;99.90;;;;;;5052132;28;20127;-68
2023/10/18 09:18:26;;;;;;;18.95;13.80;;;8.00;99.90;;;;;;5084568;28;20390;-61
2023/10/18 09:20:55;;;;;;;17.90;11.95;;;8.10;99.90;;;;;;5052597;28;20068;-61
2023/10/18 09:23:24;;;;;;;17.95;11.73;;;8.10;99.90;;;;;;5052717;28;20033;-65
2023/10/18 09:25:51;;;;;;;17.33;11.35;;;8.20;99.90;;;;;;5050711;28;20045;-67
2023/10/18 09:28:25;;;;;;;21.17;11.68;;;8.20;99.90;;;;;;5052738;28;20080;-62
2023/10/18 09:31:00;;;;;;;19.98;11.57;;;8.30;99.90;;;;;;5051891;28;20041;-63
2023/10/18 09:33:33;;;;;;;16.33;9.75;;;8.30;99.90;;;;;;5050753;28;20651;-63
2023/10/18 09:36:02;;;;;;;15.15;10.10;;;8.40;99.90;;;;;;5052808;28;20056;-63
2023/10/18 09:38:43;;;;;;;19.02;11.07;;;8.50;99.90;;;;;;5052071;28;20089;-63
2023/10/18 09:41:09;;;;;;;19.20;13.27;;;8.50;99.90;;;;;;5050866;28;20128;-64
2023/10/18 09:43:38;;;;;;;14.65;9.10;;;8.60;99.90;;;;;;5051589;28;20128;-64
2023/10/18 09:46:08;;;;;;;17.33;10.93;;;8.60;99.90;;;;;;5052332;28;20062;-64
2023/10/18 09:48:38;;;;;;;17.23;10.93;;;8.60;99.90;;;;;;5050436;28;20501;-64
2023/10/18 09:51:09;;;;;;;14.65;9.23;;;8.70;99.90;;;;;;5067808;28;20049;-65
2023/10/18 09:53:44;;;;;;;15.82;9.15;;;8.70;99.90;;;;;;5066678;28;20044;-65
2023/10/18 09:56:14;;;;;;;13.30;9.55;;;8.80;99.90;;;;;;5050993;28;20072;-65
2023/10/18 09:58:48;;;;;;;13.02;8.52;;;8.90;99.90;;;;;;5051231;28;20466;-65
2023/10/18 10:01:26;;;;;;;13.83;8.03;;;8.90;99.90;;;;;;5051364;28;20040;-65
2023/10/18 10:03:56;;;;;;;15.60;9.20;;;9.00;99.90;;;;;;5050732;28;20049;-64
2023/10/18 10:06:26;;;;;;;17.30;9.25;;;9.00;99.90;;;;;;5050628;28;20052;-65
2023/10/18 10:08:55;;;;;;;15.70;9.07;;;9.00;99.90;;;;;;5051288;28;20037;-65
2023/10/18 10:11:29;;;;;;;14.52;9.55;;;9.10;99.90;;;;;;5050570;28;20056;-65
2023/10/18 10:13:58;;;;;;;15.27;8.82;;;9.20;99.90;;;;;;5051476;28;20032;-64
2023/10/18 10:16:27;;;;;;;14.60;8.98;;;9.20;99.90;;;;;;5051388;28;20076;-64
2023/10/18 10:18:54;;;;;;;12.57;8.65;;;9.20;99.90;;;;;;5050704;28;20048;-64
2023/10/18 10:21:21;;;;;;;13.27;8.02;;;9.30;99.90;;;;;;5051485;28;20029;-64
2023/10/18 10:23:55;;;;;;;14.50;9.05;;;9.30;99.90;;;;;;5051181;28;20565;-64
2023/10/18 10:26:27;;;;;;;13.95;8.50;;;9.40;99.90;;;;;;5050683;28;20049;-64
2023/10/18 10:31:54;;;;;;;14.43;8.13;;;9.50;99.90;;;;;;5083919;28;20061;-64
2023/10/18 10:34:32;;;;;;;11.90;8.18;;;9.60;99.90;;;;;;5052770;28;20073;-65
2023/10/18 10:37:28;;;;;;;14.75;8.57;;;9.60;99.90;;;;;;5072402;28;20469;-63
2023/10/18 10:40:19;;;;;;;;;;;9.70;99.90;;;;;;5073045;28;20053;-63
2023/10/18 10:42:48;;;;;;;14.98;9.05;;;9.70;99.90;;;;;;5059231;28;19923;-70
2023/10/18 10:45:38;;;;;;;13.43;9.13;;;9.80;99.90;;;;;;5058391;28;20045;-65
2023/10/18 10:48:16;;;;;;;14.02;8.93;;;9.90;99.90;;;;;;5044918;28;20059;-65
2023/10/18 10:50:52;;;;;;;15.98;8.93;;;9.90;99.90;;;;;;5054942;28;20421;-71
2023/10/18 10:53:50;;;;;;;13.57;8.82;;;9.90;99.90;;;;;;5048214;28;20084;-66
2023/10/18 10:56:19;;;;;;;14.75;8.82;;;9.90;99.90;;;;;;5029939;28;20048;-68
2023/10/18 10:58:54;;;;;;;11.82;7.65;;;10.00;99.90;;;;;;5046890;28;20128;-67
2023/10/18 11:01:31;;;;;;;13.85;8.48;;;10.00;99.90;;;;;;5044540;28;20603;-67
2023/10/18 11:04:29;;;;;;;12.60;9.18;;;10.10;99.90;;;;;;5047047;28;20084;-67
2023/10/18 11:07:00;;;;;;;12.13;7.28;;;10.10;99.90;;;;;;5048037;28;20136;-66
2023/10/18 11:09:38;;;;;;;13.60;8.50;;;10.10;99.90;;;;;;5049516;28;20600;-66
2023/10/18 11:12:08;;;;;;;14.77;8.27;;;10.20;99.90;;;;;;5048301;28;20067;-66
2023/10/18 11:14:37;;;;;;;13.15;7.95;;;10.20;99.90;;;;;;5048507;28;20029;-68
2023/10/18 11:17:24;;;;;;;10.77;7.60;;;10.20;99.90;;;;;;5048457;28;20490;-67
2023/10/18 11:19:55;;;;;;;11.52;8.52;;;10.20;99.90;;;;;;5053780;28;20143;-67
2023/10/18 11:22:23;;;;;;;15.02;8.43;;;10.30;99.90;;;;;;5051429;28;20047;-66
2023/10/18 11:24:50;;;;;;;12.88;7.57;;;10.30;99.90;;;;;;5052048;28;20056;-69
2023/10/18 11:27:33;;;;;;;11.15;7.75;;;10.30;99.90;;;;;;5054498;28;20045;-69
2023/10/18 11:32:48;;;;;;;13.27;8.75;;;10.20;99.90;;;;;;5052143;28;20063;-71
2023/10/18 11:35:38;;;;;;;11.38;7.95;;;10.20;99.90;;;;;;5050464;28;20111;-72
2023/10/18 11:38:06;;;;;;;11.75;8.13;;;10.30;99.90;;;;;;5051302;28;20124;-70
2023/10/18 11:40:32;;;;;;;11.70;7.70;;;10.30;99.90;;;;;;5058121;28;20119;-72
2023/10/18 11:43:05;;;;;;;10.70;6.97;;;10.30;99.90;;;;;;5057271;28;20059;-65
2023/10/18 11:45:32;;;;;;;13.85;7.43;;;10.30;99.90;;;;;;5073029;28;20080;-65
2023/10/18 11:48:02;;;;;;;12.70;7.07;;;10.40;99.90;;;;;;5072867;28;20055;-67
2023/10/18 11:50:58;;;;;;;13.93;8.65;;;10.40;99.90;;;;;;5071381;28;20047;-70
2023/10/18 11:53:26;;;;;;;12.50;7.97;;;10.40;99.90;;;;;;5026356;28;20061;-67
2023/10/18 11:56:05;;;;;;;11.93;8.80;;;10.40;99.90;;;;;;5049870;28;20109;-66
2023/10/18 11:58:33;;;;;;;13.18;8.38;;;10.50;99.90;;;;;;5066184;28;20069;-67
2023/10/18 12:01:05;;;;;;;14.18;7.70;;;10.60;99.90;;;;;;5035801;28;20047;-66
2023/10/18 12:03:35;;;;;;;11.48;7.65;;;10.60;99.90;;;;;;5053926;28;20083;-66
2023/10/18 12:06:03;;;;;;;14.30;8.73;;;10.70;99.90;;;;;;5053167;28;20052;-67
2023/10/18 12:08:40;;;;;;;11.38;7.28;;;10.70;99.90;;;;;;5060810;28;20405;-66
2023/10/18 12:11:08;;;;;;;12.18;7.53;;;10.80;99.90;;;;;;5073137;28;20127;-68
2023/10/18 12:13:34;;;;;;;11.15;7.38;;;10.80;99.90;;;;;;5073947;28;20040;-65
2023/10/18 12:16:00;;;;;;;12.18;8.38;;;10.80;99.90;;;;;;5059234;28;20490;-68
2023/10/18 12:18:28;;;;;;;14.57;10.80;;;10.90;99.90;;;;;;5055133;28;20119;-68
2023/10/18 12:20:55;;;;;;;11.35;7.47;;;10.90;99.90;;;;;;5053110;28;20106;-71
2023/10/18 12:23:21;;;;;;;10.70;7.78;;;10.90;99.90;;;;;;5053351;28;20090;-67
2023/10/18 12:25:48;;;;;;;11.65;7.22;;;10.90;99.90;;;;;;5053772;28;20675;-68
2023/10/18 12:28:17;;;;;;;11.20;7.13;;;10.90;99.90;;;;;;5062388;28;20040;-69
2023/10/18 12:30:45;;;;;;;14.13;10.55;;;10.90;99.90;;;;;;5045758;28;20041;-68
2023/10/18 12:33:19;;;;;;;11.40;7.97;;;11.00;99.90;;;;;;5052811;28;20033;-68
2023/10/18 12:35:48;;;;;;;9.85;6.97;;;11.00;99.90;;;;;;5049984;28;20052;-69
2023/10/18 12:38:14;;;;;;;11.63;7.20;;;11.00;99.90;;;;;;5052143;28;20045;-67
2023/10/18 12:40:52;;;;;;;13.60;7.35;;;11.00;99.90;;;;;;5052855;28;20482;-67
2023/10/18 12:43:19;;;;;;;11.93;6.82;;;11.00;99.90;;;;;;5050591;28;20041;-68
2023/10/18 12:45:47;;;;;;;11.02;6.88;;;11.00;99.90;;;;;;5054493;28;20048;-71
2023/10/18 12:48:14;;;;;;;11.73;6.90;;;11.00;99.90;;;;;;5054568;28;20120;-66
2023/10/18 12:50:45;;;;;;;10.50;7.22;;;10.90;99.90;;;;;;5050762;28;20045;-67
2023/10/18 12:58:47;;;;;;;11.48;6.70;;;10.90;99.90;;;;;;5051056;28;20452;-67
2023/10/18 13:01:16;;;;;;;12.82;9.20;;;10.90;99.90;;;;;;5062169;28;20116;-67
2023/10/18 13:03:44;;;;;;;21.63;15.68;;;11.00;99.90;;;;;;5070649;28;20044;-67
2023/10/18 13:06:17;;;;;;;12.75;9.50;;;11.00;99.90;;;;;;5065421;28;20052;-67
2023/10/18 13:08:55;;;;;;;15.93;8.80;;;11.00;99.90;;;;;;5063509;28;20044;-70
2023/10/18 13:14:16;;;;;;;11.23;7.95;;;11.10;99.90;;;;;;5071493;28;20041;-69
2023/10/18 13:16:43;;;;;;;15.25;9.00;;;11.10;99.90;;;;;;5058211;28;20041;-67
2023/10/18 13:19:10;;;;;;;11.20;7.38;;;11.10;99.90;;;;;;5067483;28;20045;-71
2023/10/18 13:21:39;;;;;;;15.40;11.15;;;11.10;99.90;;;;;;5065830;28;20067;-69
2023/10/18 13:24:17;;;;;;;14.88;9.30;;;11.00;99.90;;;;;;5063369;28;20072;-70
2023/10/18 13:26:47;;;;;;;13.90;8.75;;;11.00;99.90;;;;;;5066713;28;20084;-69
2023/10/18 13:31:59;;;;;;;18.58;11.40;;;11.10;99.90;;;;;;5059174;28;20159;-70
2023/10/18 13:34:39;;;;;;;12.75;8.10;;;11.10;99.90;;;;;;5051614;28;20512;-70
2023/10/18 13:37:10;;;;;;;19.15;12.32;;;11.10;99.90;;;;;;5048081;28;20044;-68
2023/10/18 13:39:39;;;;;;;16.45;7.07;;;11.20;99.90;;;;;;5070343;28;20040;-70
2023/10/18 13:42:05;;;;;;;18.58;11.38;;;11.20;99.90;;;;;;5038665;28;20037;-69
2023/10/18 13:44:31;;;;;;;13.55;9.35;;;11.20;99.90;;;;;;5083722;28;20049;-69
2023/10/18 13:47:00;;;;;;;14.38;7.95;;;11.30;99.90;;;;;;5068893;28;20040;-70
2023/10/18 13:49:26;;;;;;;14.80;9.23;;;11.30;99.90;;;;;;5071232;28;20135;-71
2023/10/18 13:51:56;;;;;;;18.48;12.05;;;11.30;99.90;;;;;;5070565;28;20123;-71
2023/10/18 13:54:22;;;;;;;14.60;8.30;;;11.30;99.90;;;;;;5053535;28;20040;-69
2023/10/18 13:56:49;;;;;;;11.50;6.50;;;11.30;99.90;;;;;;5070804;28;20052;-70
2023/10/18 13:59:15;;;;;;;18.67;11.38;;;11.30;99.90;;;;;;5065163;28;20048;-69
2023/10/18 14:01:42;;;;;;;19.58;11.02;;;11.30;99.90;;;;;;5052730;28;20037;-69
2023/10/18 14:04:08;;;;;;;14.48;8.98;;;11.30;99.90;;;;;;5055510;28;20151;-68
2023/10/18 14:06:34;;;;;;;15.40;10.88;;;11.20;99.90;;;;;;5053997;28;20514;-68
2023/10/18 14:09:04;;;;;;;13.80;8.85;;;11.20;99.90;;;;;;5046550;28;20084;-66
2023/10/18 14:11:33;;;;;;;13.02;9.18;;;11.20;99.90;;;;;;5032033;28;20058;-66